PWSweather.com
Personal Weather Stations
Station Observations
KNYSIDNE1
East Masonville, Masonville, NY 13804

East MasonvilleMasonville, NY 13804

Lat: 42.26, Lon: -75.31

Elevation: 1581

Station Type: Davis WMII

http://eastmasonvilleweather.com

Latest ConditionsUpdated 3:00:00 PM EST Monday, Feb 19, 2018
Currently Today's Max Today's Min Today's Average
Temperature 36.4°F2.4°C 38.8°F3.8°C 18.1°F-7.7°C 32.0°F0.0°C
Dew Point 34.1°F1.2°C 34.1°F1.2°C 16.4°F-8.7°C 26.4°F-3.1°C
Winds Calm Calm 11.5 mph S18.5 kmh S - 4.2 mph 6.8 kmh
Wind Gusts 3.5 mph5.6 kmh 18.4 mph29.6 kmh - -
Humidity 91% 93% 70% 80%
Pressure 30.27 in1025.1 mb 30.47 in1031.8 mb 30.27 in1025.1 mb -
Precipitation - 0.10 in2.5 mm - -
Hour Temp Dew Point Humidity Winds Wind Gusts Pressure Precip Precip Rate Daily Precip Total
03:00 PM 36.4°F2.4°C 34.1°F1.2°C 91% Calm Calm 3.5 mph5.6 kmh 30.27 in1025.1 mb - 0.02 in0.5 mm 0.10 in2.5 mm
02:50 PM 36.5°F2.5°C 34.1°F1.2°C 91% 6.9 mph S11.1 kmh S 12.7 mph20.4 kmh 30.28 in1025.4 mb - 0.00 in0.0 mm 0.08 in2.0 mm
02:40 PM 36.6°F2.6°C 33.9°F1.1°C 90% 6.9 mph S11.1 kmh S 10.4 mph16.7 kmh 30.27 in1025.1 mb - 0.01 in0.3 mm 0.08 in2.0 mm
02:30 PM 36.6°F2.6°C 33.9°F1.1°C 90% 6.9 mph S11.1 kmh S 16.1 mph25.9 kmh 30.29 in1025.7 mb - 0.02 in0.5 mm 0.07 in1.8 mm
02:20 PM 36.7°F2.6°C 33.8°F1.0°C 89% 4.6 mph S7.4 kmh S 5.8 mph9.3 kmh 30.30 in1026.1 mb - 0.00 in0.0 mm 0.05 in1.3 mm
02:10 PM 36.8°F2.7°C 33.9°F1.1°C 89% 4.6 mph S7.4 kmh S 10.4 mph16.7 kmh 30.29 in1025.7 mb - 0.00 in0.0 mm 0.05 in1.3 mm
02:00 PM 36.6°F2.6°C 33.7°F0.9°C 89% 3.5 mph SW5.6 kmh SW 5.8 mph9.3 kmh 30.29 in1025.7 mb - 0.00 in0.0 mm 0.05 in1.3 mm
01:50 PM 36.5°F2.5°C 33.3°F0.7°C 88% 3.5 mph SSW5.6 kmh SSW 5.8 mph9.3 kmh 30.29 in1025.7 mb - 0.00 in0.0 mm 0.05 in1.3 mm
01:40 PM 36.4°F2.4°C 33.2°F0.7°C 88% 6.9 mph S11.1 kmh S 15.0 mph24.1 kmh 30.29 in1025.7 mb - 0.01 in0.3 mm 0.05 in1.3 mm
01:30 PM 36.3°F2.4°C 32.8°F0.4°C 87% 1.2 mph S1.9 kmh S 3.5 mph5.6 kmh 30.29 in1025.7 mb - 0.00 in0.0 mm 0.04 in1.0 mm
01:20 PM 36.4°F2.4°C 32.6°F0.3°C 86% 4.6 mph SSE7.4 kmh SSE 10.4 mph16.7 kmh 30.30 in1026.1 mb - 0.00 in0.0 mm 0.04 in1.0 mm
01:10 PM 36.4°F2.4°C 32.6°F0.3°C 86% 5.8 mph S9.3 kmh S 10.4 mph16.7 kmh 30.32 in1026.8 mb - 0.01 in0.3 mm 0.04 in1.0 mm
01:00 PM 36.5°F2.5°C 32.1°F0.1°C 84% 1.2 mph S1.9 kmh S 11.5 mph18.5 kmh 30.34 in1027.4 mb - 0.01 in0.3 mm 0.03 in0.8 mm
12:50 PM 36.9°F2.7°C 31.9°F-0.1°C 82% 2.3 mph S3.7 kmh S 3.5 mph5.6 kmh 30.34 in1027.4 mb - 0.01 in0.3 mm 0.02 in0.5 mm
12:40 PM 37.3°F2.9°C 31.4°F-0.3°C 79% 1.2 mph S1.9 kmh S 2.3 mph3.7 kmh 30.34 in1027.4 mb - 0.01 in0.3 mm 0.01 in0.3 mm
12:30 PM 37.5°F3.1°C 30.6°F-0.8°C 76% 4.6 mph S7.4 kmh S 4.6 mph7.4 kmh 30.35 in1027.8 mb - 0.00 in0.0 mm 0.00 in0.0 mm
12:20 PM 37.7°F3.2°C 29.8°F-1.2°C 73% 4.6 mph S7.4 kmh S 12.7 mph20.4 kmh 30.36 in1028.1 mb - 0.00 in0.0 mm 0.00 in0.0 mm
12:10 PM 37.8°F3.2°C 29.6°F-1.3°C 72% 4.6 mph SW7.4 kmh SW 6.9 mph11.1 kmh 30.37 in1028.4 mb - 0.00 in0.0 mm 0.00 in0.0 mm
12:00 PM 37.8°F3.2°C 29.6°F-1.3°C 72% 3.5 mph W5.6 kmh W 4.6 mph7.4 kmh 30.37 in1028.4 mb - 0.00 in0.0 mm 0.00 in0.0 mm
11:50 AM 37.8°F3.2°C 29.6°F-1.3°C 72% 5.8 mph SW9.3 kmh SW 8.1 mph13.0 kmh 30.38 in1028.8 mb - 0.00 in0.0 mm 0.00 in0.0 mm
11:40 AM 38.0°F3.3°C 29.8°F-1.2°C 72% 4.6 mph SSW7.4 kmh SSW 8.1 mph13.0 kmh 30.38 in1028.8 mb - 0.00 in0.0 mm 0.00 in0.0 mm
11:30 AM 38.3°F3.5°C 29.7°F-1.3°C 71% 1.2 mph SSW1.9 kmh SSW 3.5 mph5.6 kmh 30.38 in1028.8 mb - 0.00 in0.0 mm 0.00 in0.0 mm
11:20 AM 38.8°F3.8°C 29.8°F-1.2°C 70% 2.3 mph WSW3.7 kmh WSW 2.3 mph3.7 kmh 30.38 in1028.8 mb - 0.00 in0.0 mm 0.00 in0.0 mm
11:10 AM 38.8°F3.8°C 29.8°F-1.2°C 70% 2.3 mph SW3.7 kmh SW 4.6 mph7.4 kmh 30.38 in1028.8 mb - 0.00 in0.0 mm 0.00 in0.0 mm
11:00 AM 38.7°F3.7°C 29.8°F-1.2°C 70% 1.2 mph SE1.9 kmh SE 3.5 mph5.6 kmh 30.39 in1029.1 mb - 0.00 in0.0 mm 0.00 in0.0 mm
10:50 AM 38.3°F3.5°C 29.7°F-1.3°C 71% 4.6 mph SW7.4 kmh SW 11.5 mph18.5 kmh 30.40 in1029.5 mb - 0.00 in0.0 mm 0.00 in0.0 mm
10:40 AM 38.0°F3.3°C 29.4°F-1.4°C 71% 4.6 mph WNW7.4 kmh WNW 5.8 mph9.3 kmh 30.39 in1029.1 mb - 0.00 in0.0 mm 0.00 in0.0 mm
10:30 AM 37.7°F3.2°C 29.5°F-1.4°C 72% 3.5 mph SW5.6 kmh SW 8.1 mph13.0 kmh 30.40 in1029.5 mb - 0.00 in0.0 mm 0.00 in0.0 mm
10:20 AM 37.1°F2.8°C 29.2°F-1.6°C 73% 3.5 mph SW5.6 kmh SW 3.5 mph5.6 kmh 30.39 in1029.1 mb - 0.00 in0.0 mm 0.00 in0.0 mm
10:10 AM 36.6°F2.6°C 29.1°F-1.6°C 74% 4.6 mph S7.4 kmh S 12.7 mph20.4 kmh 30.40 in1029.5 mb - 0.00 in0.0 mm 0.00 in0.0 mm
10:00 AM 36.7°F2.6°C 28.9°F-1.7°C 73% 4.6 mph SW7.4 kmh SW 8.1 mph13.0 kmh 30.40 in1029.5 mb - 0.00 in0.0 mm 0.00 in0.0 mm
09:50 AM 36.6°F2.6°C 28.8°F-1.8°C 73% 2.3 mph SSW3.7 kmh SSW 5.8 mph9.3 kmh 30.41 in1029.8 mb - 0.00 in0.0 mm 0.00 in0.0 mm
09:40 AM 35.9°F2.2°C 28.7°F-1.8°C 75% 4.6 mph S7.4 kmh S 5.8 mph9.3 kmh 30.41 in1029.8 mb - 0.00 in0.0 mm 0.00 in0.0 mm
09:30 AM 35.3°F1.8°C 28.5°F-1.9°C 76% 3.5 mph SW5.6 kmh SW 6.9 mph11.1 kmh 30.41 in1029.8 mb - 0.00 in0.0 mm 0.00 in0.0 mm
09:20 AM 35.1°F1.7°C 28.3°F-2.1°C 76% 3.5 mph SSW5.6 kmh SSW 3.5 mph5.6 kmh 30.42 in1030.1 mb - 0.00 in0.0 mm 0.00 in0.0 mm
09:10 AM 34.8°F1.6°C 28.0°F-2.2°C 76% 4.6 mph S7.4 kmh S 8.1 mph13.0 kmh 30.42 in1030.1 mb - 0.00 in0.0 mm 0.00 in0.0 mm
09:00 AM 34.2°F1.2°C 28.1°F-2.2°C 78% 1.2 mph S1.9 kmh S 5.8 mph9.3 kmh 30.43 in1030.5 mb - 0.00 in0.0 mm 0.00 in0.0 mm
08:50 AM 33.6°F0.9°C 27.5°F-2.5°C 78% 3.5 mph SW5.6 kmh SW 3.5 mph5.6 kmh 30.43 in1030.5 mb - 0.00 in0.0 mm 0.00 in0.0 mm
08:40 AM 33.1°F0.6°C 27.0°F-2.8°C 78% 5.8 mph SSW9.3 kmh SSW 6.9 mph11.1 kmh 30.43 in1030.5 mb - 0.00 in0.0 mm 0.00 in0.0 mm
08:30 AM 32.8°F0.4°C 27.0°F-2.8°C 79% 5.8 mph WSW9.3 kmh WSW 6.9 mph11.1 kmh 30.43 in1030.5 mb - 0.00 in0.0 mm 0.00 in0.0 mm
08:20 AM 32.5°F0.3°C 26.7°F-2.9°C 79% 3.5 mph WSW5.6 kmh WSW 5.8 mph9.3 kmh 30.43 in1030.5 mb - 0.00 in0.0 mm 0.00 in0.0 mm
08:10 AM 32.2°F0.1°C 26.4°F-3.1°C 79% 4.6 mph SW7.4 kmh SW 9.2 mph14.8 kmh 30.43 in1030.5 mb - 0.00 in0.0 mm 0.00 in0.0 mm
08:00 AM 32.0°F0.0°C 26.2°F-3.2°C 79% 2.3 mph SSW3.7 kmh SSW 3.5 mph5.6 kmh 30.42 in1030.1 mb - 0.00 in0.0 mm 0.00 in0.0 mm
07:50 AM 31.8°F-0.1°C 26.0°F-3.3°C 79% 3.5 mph SSW5.6 kmh SSW 4.6 mph7.4 kmh 30.43 in1030.5 mb - 0.00 in0.0 mm 0.00 in0.0 mm
07:40 AM 31.6°F-0.2°C 25.8°F-3.4°C 79% 2.3 mph S3.7 kmh S 8.1 mph13.0 kmh 30.42 in1030.1 mb - 0.00 in0.0 mm 0.00 in0.0 mm
07:30 AM 31.3°F-0.4°C 25.5°F-3.6°C 79% 5.8 mph SSW9.3 kmh SSW 11.5 mph18.5 kmh 30.42 in1030.1 mb - 0.00 in0.0 mm 0.00 in0.0 mm
07:20 AM 31.1°F-0.5°C 25.3°F-3.7°C 79% 6.9 mph S11.1 kmh S 8.1 mph13.0 kmh 30.41 in1029.8 mb - 0.00 in0.0 mm 0.00 in0.0 mm
07:10 AM 31.0°F-0.6°C 24.9°F-3.9°C 78% 6.9 mph SSE11.1 kmh SSE 11.5 mph18.5 kmh 30.42 in1030.1 mb - 0.00 in0.0 mm 0.00 in0.0 mm
07:00 AM 31.0°F-0.6°C 24.9°F-3.9°C 78% 2.3 mph WSW3.7 kmh WSW 6.9 mph11.1 kmh 30.42 in1030.1 mb - 0.00 in0.0 mm 0.00 in0.0 mm
06:50 AM 31.0°F-0.6°C 24.9°F-3.9°C 78% 5.8 mph SSW9.3 kmh SSW 18.4 mph29.6 kmh 30.41 in1029.8 mb - 0.00 in0.0 mm 0.00 in0.0 mm
06:40 AM 30.9°F-0.6°C 24.8°F-4.0°C 78% 6.9 mph S11.1 kmh S 12.7 mph20.4 kmh 30.40 in1029.5 mb - 0.00 in0.0 mm 0.00 in0.0 mm
06:30 AM 30.9°F-0.6°C 24.8°F-4.0°C 78% 5.8 mph SSW9.3 kmh SSW 8.1 mph13.0 kmh 30.41 in1029.8 mb - 0.00 in0.0 mm 0.00 in0.0 mm
06:20 AM 30.9°F-0.6°C 24.5°F-4.2°C 77% 3.5 mph WSW5.6 kmh WSW 5.8 mph9.3 kmh 30.41 in1029.8 mb - 0.00 in0.0 mm 0.00 in0.0 mm
06:10 AM 31.0°F-0.6°C 24.6°F-4.1°C 77% 5.8 mph SSE9.3 kmh SSE 12.7 mph20.4 kmh 30.41 in1029.8 mb - 0.00 in0.0 mm 0.00 in0.0 mm
06:00 AM 31.1°F-0.5°C 24.7°F-4.1°C 77% 10.4 mph S16.7 kmh S 15.0 mph24.1 kmh 30.42 in1030.1 mb - 0.00 in0.0 mm 0.00 in0.0 mm
05:50 AM 31.2°F-0.4°C 24.5°F-4.2°C 76% 5.8 mph S9.3 kmh S 11.5 mph18.5 kmh 30.42 in1030.1 mb - 0.00 in0.0 mm 0.00 in0.0 mm
05:40 AM 31.2°F-0.4°C 24.8°F-4.0°C 77% 8.1 mph S13.0 kmh S 17.3 mph27.8 kmh 30.43 in1030.5 mb - 0.00 in0.0 mm 0.00 in0.0 mm
05:30 AM 31.1°F-0.5°C 24.4°F-4.2°C 76% 9.2 mph S14.8 kmh S 13.8 mph22.2 kmh 30.43 in1030.5 mb - 0.00 in0.0 mm 0.00 in0.0 mm
05:20 AM 31.1°F-0.5°C 24.4°F-4.2°C 76% 8.1 mph SW13.0 kmh SW 10.4 mph16.7 kmh 30.43 in1030.5 mb - 0.00 in0.0 mm 0.00 in0.0 mm
05:10 AM 31.2°F-0.4°C 24.5°F-4.2°C 76% 9.2 mph SSW14.8 kmh SSW 13.8 mph22.2 kmh 30.45 in1031.2 mb - 0.00 in0.0 mm 0.00 in0.0 mm
05:00 AM 31.1°F-0.5°C 24.4°F-4.2°C 76% 11.5 mph S18.5 kmh S 18.4 mph29.6 kmh 30.44 in1030.8 mb - 0.00 in0.0 mm 0.00 in0.0 mm
04:50 AM 30.9°F-0.6°C 24.2°F-4.3°C 76% 2.3 mph S3.7 kmh S 6.9 mph11.1 kmh 30.44 in1030.8 mb - 0.00 in0.0 mm 0.00 in0.0 mm
04:40 AM 30.8°F-0.7°C 24.1°F-4.4°C 76% 5.8 mph S9.3 kmh S 9.2 mph14.8 kmh 30.45 in1031.2 mb - 0.00 in0.0 mm 0.00 in0.0 mm
04:30 AM 30.6°F-0.8°C 24.2°F-4.3°C 77% 5.8 mph S9.3 kmh S 15.0 mph24.1 kmh 30.45 in1031.2 mb - 0.00 in0.0 mm 0.00 in0.0 mm
04:20 AM 30.4°F-0.9°C 24.0°F-4.4°C 77% 5.8 mph SSW9.3 kmh SSW 4.6 mph7.4 kmh 30.44 in1030.8 mb - 0.00 in0.0 mm 0.00 in0.0 mm
04:10 AM 30.2°F-1.0°C 23.8°F-4.6°C 77% 5.8 mph SW9.3 kmh SW 5.8 mph9.3 kmh 30.43 in1030.5 mb - 0.00 in0.0 mm 0.00 in0.0 mm
04:00 AM 29.9°F-1.2°C 23.6°F-4.7°C 77% 4.6 mph S7.4 kmh S 6.9 mph11.1 kmh 30.43 in1030.5 mb - 0.00 in0.0 mm 0.00 in0.0 mm
03:50 AM 29.8°F-1.2°C 23.5°F-4.7°C 77% 6.9 mph SSE11.1 kmh SSE 8.1 mph13.0 kmh 30.43 in1030.5 mb - 0.00 in0.0 mm 0.00 in0.0 mm
03:40 AM 29.8°F-1.2°C 23.5°F-4.7°C 77% 1.2 mph S1.9 kmh S 2.3 mph3.7 kmh 30.43 in1030.5 mb - 0.00 in0.0 mm 0.00 in0.0 mm
03:30 AM 29.7°F-1.3°C 23.4°F-4.8°C 77% 5.8 mph S9.3 kmh S 8.1 mph13.0 kmh 30.43 in1030.5 mb - 0.00 in0.0 mm 0.00 in0.0 mm
03:20 AM 29.4°F-1.4°C 23.4°F-4.8°C 78% 4.6 mph S7.4 kmh S 17.3 mph27.8 kmh 30.43 in1030.5 mb - 0.00 in0.0 mm 0.00 in0.0 mm
03:10 AM 29.2°F-1.6°C 23.2°F-4.9°C 78% 5.8 mph S9.3 kmh S 10.4 mph16.7 kmh 30.43 in1030.5 mb - 0.00 in0.0 mm 0.00 in0.0 mm
03:00 AM 28.8°F-1.8°C 23.1°F-4.9°C 79% 5.8 mph S9.3 kmh S 12.7 mph20.4 kmh 30.43 in1030.5 mb - 0.00 in0.0 mm 0.00 in0.0 mm
02:50 AM 28.5°F-1.9°C 22.8°F-5.1°C 79% 1.2 mph S1.9 kmh S 3.5 mph5.6 kmh 30.43 in1030.5 mb - 0.00 in0.0 mm 0.00 in0.0 mm
02:40 AM 28.2°F-2.1°C 22.8°F-5.1°C 80% 2.3 mph SW3.7 kmh SW 3.5 mph5.6 kmh 30.43 in1030.5 mb - 0.00 in0.0 mm 0.00 in0.0 mm
02:30 AM 27.6°F-2.4°C 22.5°F-5.3°C 81% 3.5 mph S5.6 kmh S 6.9 mph11.1 kmh 30.43 in1030.5 mb - 0.00 in0.0 mm 0.00 in0.0 mm
02:20 AM 27.2°F-2.7°C 22.1°F-5.5°C 81% 3.5 mph S5.6 kmh S 5.8 mph9.3 kmh 30.44 in1030.8 mb - 0.00 in0.0 mm 0.00 in0.0 mm
02:10 AM 26.7°F-2.9°C 22.0°F-5.6°C 82% 3.5 mph S5.6 kmh S 5.8 mph9.3 kmh 30.44 in1030.8 mb - 0.00 in0.0 mm 0.00 in0.0 mm
02:00 AM 26.2°F-3.2°C 22.0°F-5.6°C 84% 4.6 mph S7.4 kmh S 8.1 mph13.0 kmh 30.44 in1030.8 mb - 0.00 in0.0 mm 0.00 in0.0 mm
01:50 AM 25.4°F-3.7°C 21.5°F-5.8°C 85% 2.3 mph S3.7 kmh S 5.8 mph9.3 kmh 30.44 in1030.8 mb - 0.00 in0.0 mm 0.00 in0.0 mm
01:40 AM 24.7°F-4.1°C 21.1°F-6.1°C 86% 4.6 mph S7.4 kmh S 6.9 mph11.1 kmh 30.45 in1031.2 mb - 0.00 in0.0 mm 0.00 in0.0 mm
01:30 AM 24.1°F-4.4°C 20.5°F-6.4°C 86% Calm Calm 1.2 mph1.9 kmh 30.45 in1031.2 mb - 0.00 in0.0 mm 0.00 in0.0 mm
01:20 AM 24.0°F-4.4°C 20.4°F-6.4°C 86% Calm Calm 2.3 mph3.7 kmh 30.45 in1031.2 mb - 0.00 in0.0 mm 0.00 in0.0 mm
01:10 AM 24.0°F-4.4°C 20.7°F-6.3°C 87% 1.2 mph SSW1.9 kmh SSW 1.2 mph1.9 kmh 30.45 in1031.2 mb - 0.00 in0.0 mm 0.00 in0.0 mm
01:00 AM 23.6°F-4.7°C 20.8°F-6.2°C 89% 2.3 mph S3.7 kmh S 3.5 mph5.6 kmh 30.45 in1031.2 mb - 0.00 in0.0 mm 0.00 in0.0 mm
12:50 AM 22.8°F-5.1°C 20.3°F-6.5°C 90% 3.5 mph S5.6 kmh S 5.8 mph9.3 kmh 30.45 in1031.2 mb - 0.00 in0.0 mm 0.00 in0.0 mm
12:40 AM 22.1°F-5.5°C 20.1°F-6.6°C 92% Calm Calm -- 30.46 in1031.5 mb - 0.00 in0.0 mm 0.00 in0.0 mm
12:30 AM 21.1°F-6.1°C 19.1°F-7.2°C 92% 2.3 mph S3.7 kmh S 3.5 mph5.6 kmh 30.46 in1031.5 mb - 0.00 in0.0 mm 0.00 in0.0 mm
12:20 AM 20.2°F-6.6°C 18.5°F-7.5°C 93% 3.5 mph SSE5.6 kmh SSE 4.6 mph7.4 kmh 30.46 in1031.5 mb - 0.00 in0.0 mm 0.00 in0.0 mm
12:10 AM 19.4°F-7.0°C 17.7°F-7.9°C 93% Calm Calm 1.2 mph1.9 kmh 30.47 in1031.8 mb - 0.00 in0.0 mm 0.00 in0.0 mm
12:00 AM 18.1°F-7.7°C 16.4°F-8.7°C 93% Calm Calm 1.2 mph1.9 kmh 30.47 in1031.8 mb - 0.00 in0.0 mm 0.00 in0.0 mm